createdAt,value
2023-04-01T00:00:36.557Z,8.70
2023-04-01T00:03:03.353Z,8.70
2023-04-01T00:05:30.419Z,8.80
2023-04-01T00:07:57.316Z,8.80
2023-04-01T00:10:24.090Z,8.80
2023-04-01T00:12:54.233Z,8.80
2023-04-01T00:15:21.718Z,8.80
2023-04-01T00:17:48.745Z,8.80
2023-04-01T00:20:15.604Z,8.80
2023-04-01T00:22:42.357Z,8.80
2023-04-01T00:25:09.461Z,8.80
2023-04-01T00:27:36.188Z,8.80
2023-04-01T00:30:03.116Z,8.80
2023-04-01T00:32:30.169Z,8.80
2023-04-01T00:34:56.987Z,8.80
2023-04-01T00:37:23.854Z,8.80
2023-04-01T00:39:50.578Z,8.80
2023-04-01T00:42:17.409Z,8.80
2023-04-01T00:44:46.320Z,8.80
2023-04-01T00:47:13.123Z,8.70
2023-04-01T00:49:43.693Z,8.70
2023-04-01T00:52:13.874Z,8.60
2023-04-01T00:54:43.749Z,8.70
2023-04-01T00:57:16.675Z,8.70
2023-04-01T00:59:50.451Z,8.60
2023-04-01T01:02:19.700Z,8.60
2023-04-01T01:04:46.513Z,8.60
2023-04-01T01:07:35.484Z,8.60
2023-04-01T01:10:32.455Z,8.60
2023-04-01T01:13:25.985Z,8.60
2023-04-01T01:16:06.881Z,8.50
2023-04-01T01:18:44.845Z,8.50
2023-04-01T01:21:34.682Z,8.40
2023-04-01T01:24:10.579Z,8.40
2023-04-01T01:26:52.819Z,8.30
2023-04-01T01:29:31.438Z,8.30
2023-04-01T01:32:43.006Z,8.20
2023-04-01T01:35:57.845Z,8.20
2023-04-01T01:38:30.012Z,8.10
2023-04-01T01:40:58.891Z,8.10
2023-04-01T01:43:31.231Z,8.00
2023-04-01T01:46:01.635Z,8.00
2023-04-01T01:48:28.834Z,7.90
2023-04-01T01:50:55.942Z,7.90
2023-04-01T01:53:22.706Z,7.90
2023-04-01T01:55:50.152Z,7.80
2023-04-01T01:58:42.234Z,7.80
2023-04-01T02:01:32.447Z,7.90
2023-04-01T02:04:00.504Z,7.80
2023-04-01T02:06:31.504Z,7.80
2023-04-01T02:09:04.621Z,7.80
2023-04-01T02:11:54.116Z,7.70
2023-04-01T02:14:27.686Z,7.70
2023-04-01T02:17:09.841Z,7.70
2023-04-01T02:20:06.839Z,7.60
2023-04-01T02:22:38.243Z,7.60
2023-04-01T02:25:18.675Z,7.60
2023-04-01T02:27:46.598Z,7.60
2023-04-01T02:30:16.062Z,7.60
2023-04-01T02:32:43.694Z,7.60
2023-04-01T02:35:12.826Z,7.50
2023-04-01T02:37:43.414Z,7.50
2023-04-01T02:40:14.617Z,7.50
2023-04-01T02:42:41.873Z,7.50
2023-04-01T02:45:09.781Z,7.50
2023-04-01T02:47:36.573Z,7.50
2023-04-01T02:50:03.806Z,7.50
2023-04-01T02:52:31.501Z,7.50
2023-04-01T02:54:59.353Z,7.50
2023-04-01T02:57:26.680Z,7.40
2023-04-01T02:59:53.976Z,7.40
2023-04-01T03:02:20.769Z,7.50
2023-04-01T03:04:47.701Z,7.40
2023-04-01T03:07:14.621Z,7.40
2023-04-01T03:09:41.833Z,7.50
2023-04-01T03:12:08.807Z,7.40
2023-04-01T03:14:35.780Z,7.40
2023-04-01T03:17:02.630Z,7.40
2023-04-01T03:19:30.157Z,7.50
2023-04-01T03:21:56.846Z,7.50
2023-04-01T03:24:23.754Z,7.40
2023-04-01T03:26:50.777Z,7.50
2023-04-01T03:29:17.724Z,7.50
2023-04-01T03:31:44.487Z,7.50
2023-04-01T03:34:11.379Z,7.60
2023-04-01T03:36:38.591Z,7.50
2023-04-01T03:39:06.104Z,7.50
2023-04-01T03:41:33.323Z,7.60
2023-04-01T03:44:00.384Z,7.60
2023-04-01T03:46:27.196Z,7.60
2023-04-01T03:48:54.139Z,7.60
2023-04-01T03:51:23.361Z,7.50
2023-04-01T03:53:51.771Z,7.50
2023-04-01T03:56:18.580Z,7.50
2023-04-01T03:58:45.342Z,7.50
2023-04-01T04:01:21.894Z,7.50
2023-04-01T04:03:50.769Z,7.50
2023-04-01T04:06:19.517Z,7.50
2023-04-01T04:08:46.931Z,7.50
2023-04-01T04:11:15.120Z,7.50
2023-04-01T04:13:43.278Z,7.50
2023-04-01T04:16:11.337Z,7.40
2023-04-01T04:18:40.066Z,7.50
2023-04-01T04:21:07.111Z,7.40
2023-04-01T04:23:34.662Z,7.40
2023-04-01T04:26:07.516Z,7.40
2023-04-01T04:28:35.093Z,7.40
2023-04-01T04:31:02.212Z,7.40
2023-04-01T04:33:29.459Z,7.50
2023-04-01T04:35:57.624Z,7.50
2023-04-01T04:38:24.604Z,7.50
2023-04-01T04:40:51.354Z,7.50
2023-04-01T04:43:19.327Z,7.50
2023-04-01T04:45:46.536Z,7.40
2023-04-01T04:48:19.280Z,7.50
2023-04-01T04:50:47.790Z,7.60
2023-04-01T04:53:17.408Z,7.50
2023-04-01T04:55:48.421Z,7.60
2023-04-01T04:58:19.121Z,7.60
2023-04-01T05:00:46.340Z,7.60
2023-04-01T05:03:14.286Z,7.60
2023-04-01T05:05:41.130Z,7.70
2023-04-01T05:08:07.899Z,7.70
2023-04-01T05:10:34.714Z,7.70
2023-04-01T05:13:01.443Z,7.80
2023-04-01T05:15:28.201Z,7.80
2023-04-01T05:17:55.152Z,7.80
2023-04-01T05:20:24.471Z,7.80
2023-04-01T05:22:51.234Z,7.90
2023-04-01T05:25:19.344Z,7.90
2023-04-01T05:27:46.253Z,7.90
2023-04-01T05:30:15.341Z,7.90
2023-04-01T05:32:42.361Z,7.90
2023-04-01T05:35:10.927Z,8.00
2023-04-01T05:37:38.325Z,8.00
2023-04-01T05:40:05.929Z,8.00
2023-04-01T05:42:32.877Z,8.00
2023-04-01T05:44:59.795Z,8.00
2023-04-01T05:47:26.561Z,8.10
2023-04-01T05:49:53.325Z,8.10
2023-04-01T05:52:20.292Z,8.20
2023-04-01T05:54:47.035Z,8.30
2023-04-01T05:57:16.781Z,8.30
2023-04-01T05:59:43.650Z,8.30
2023-04-01T06:02:13.197Z,8.30
2023-04-01T06:04:41.947Z,8.40
2023-04-01T06:07:18.927Z,8.40
2023-04-01T06:09:46.526Z,8.40
2023-04-01T06:12:27.955Z,8.50
2023-04-01T06:15:13.148Z,8.60
2023-04-01T06:18:14.265Z,8.70
2023-04-01T06:21:00.026Z,8.70
2023-04-01T06:23:31.307Z,8.80
2023-04-01T06:26:42.879Z,9.00
2023-04-01T06:29:37.323Z,9.10
2023-04-01T06:32:21.626Z,9.10
2023-04-01T06:35:07.397Z,9.10
2023-04-01T06:37:52.601Z,9.10
2023-04-01T06:40:38.263Z,9.10
2023-04-01T06:43:32.018Z,9.10
2023-04-01T06:46:54.308Z,9.10
2023-04-01T06:50:02.760Z,9.10
2023-04-01T06:52:41.537Z,9.20
2023-04-01T06:55:22.713Z,9.30
2023-04-01T06:57:53.332Z,9.30
2023-04-01T07:00:32.618Z,9.30
2023-04-01T07:03:34.440Z,9.40
2023-04-01T07:06:05.728Z,9.50
2023-04-01T07:08:37.829Z,9.50
2023-04-01T07:11:07.041Z,9.60
2023-04-01T07:14:03.877Z,9.70
2023-04-01T07:16:38.920Z,9.80
2023-04-01T07:19:30.323Z,9.80
2023-04-01T07:22:11.687Z,9.80
2023-04-01T07:24:42.743Z,9.90
2023-04-01T07:27:14.681Z,9.90
2023-04-01T07:29:42.076Z,10.00
2023-04-01T07:32:21.790Z,10.00
2023-04-01T07:35:17.817Z,10.00
2023-04-01T07:37:56.985Z,9.90
2023-04-01T07:41:04.750Z,10.00
2023-04-01T07:43:37.325Z,9.90
2023-04-01T07:46:18.450Z,10.00
2023-04-01T07:49:21.700Z,9.90
2023-04-01T07:51:48.486Z,9.90
2023-04-01T07:54:30.192Z,9.90
2023-04-01T07:57:12.646Z,9.90
2023-04-01T07:59:53.150Z,9.90
2023-04-01T08:02:23.166Z,10.00
2023-04-01T08:04:55.608Z,10.00
2023-04-01T08:07:29.422Z,10.00
2023-04-01T08:10:09.589Z,10.10
2023-04-01T08:13:06.115Z,10.20
2023-04-01T08:16:09.846Z,10.20
2023-04-01T08:18:59.681Z,10.30
2023-04-01T08:21:36.017Z,10.30
2023-04-01T08:24:20.693Z,10.40
2023-04-01T08:26:54.770Z,10.40
2023-04-01T08:29:46.522Z,10.40
2023-04-01T08:32:29.002Z,10.50
2023-04-01T08:35:23.935Z,10.50
2023-04-01T08:37:55.874Z,10.50
2023-04-01T08:40:28.506Z,10.50
2023-04-01T08:43:04.355Z,10.60
2023-04-01T08:45:37.050Z,10.60
2023-04-01T08:48:29.183Z,10.70
2023-04-01T08:51:20.670Z,10.80
2023-04-01T08:54:06.630Z,10.90
2023-04-01T08:57:12.211Z,11.00
2023-04-01T08:59:59.251Z,11.10
2023-04-01T09:02:44.801Z,11.20
2023-04-01T09:05:33.878Z,11.30
2023-04-01T09:08:19.348Z,11.30
2023-04-01T09:11:11.386Z,11.30
2023-04-01T09:14:05.969Z,11.20
2023-04-01T09:16:57.244Z,11.20
2023-04-01T09:19:30.327Z,11.30
2023-04-01T09:22:19.480Z,11.20
2023-04-01T09:25:01.687Z,11.40
2023-04-01T09:27:31.984Z,11.40
2023-04-01T09:30:00.230Z,11.40
2023-04-01T09:32:47.284Z,11.40
2023-04-01T09:35:42.123Z,11.20
2023-04-01T09:38:47.564Z,10.90
2023-04-01T09:41:37.884Z,10.70
2023-04-01T09:44:05.843Z,10.50
2023-04-01T09:47:11.152Z,10.50
2023-04-01T09:50:08.030Z,10.40
2023-04-01T09:53:16.318Z,10.20
2023-04-01T09:56:01.488Z,10.30
2023-04-01T09:58:43.790Z,10.50
2023-04-01T10:01:45.181Z,10.60
2023-04-01T10:04:39.961Z,10.60
2023-04-01T10:07:21.322Z,10.70
2023-04-01T10:10:08.647Z,10.60
2023-04-01T10:12:54.226Z,10.60
2023-04-01T10:15:35.851Z,10.70
2023-04-01T10:18:21.481Z,11.00
2023-04-01T10:21:22.458Z,11.00
2023-04-01T10:24:35.162Z,11.00
2023-04-01T10:27:22.296Z,11.00
2023-04-01T10:30:03.683Z,11.00
2023-04-01T10:32:49.314Z,10.80
2023-04-01T10:35:16.662Z,10.80
2023-04-01T10:38:21.391Z,10.80
2023-04-01T10:41:07.087Z,10.90
2023-04-01T10:43:52.634Z,11.00
2023-04-01T10:46:38.242Z,11.10
2023-04-01T10:49:43.360Z,11.10
2023-04-01T10:52:24.077Z,11.40
2023-04-01T10:55:15.444Z,11.70
2023-04-01T10:58:11.100Z,12.00
2023-04-01T11:01:23.083Z,11.90
2023-04-01T11:04:10.604Z,12.00
2023-04-01T11:07:01.468Z,12.30
2023-04-01T11:10:01.733Z,12.30
2023-04-01T11:13:18.518Z,12.60
2023-04-01T11:16:23.003Z,12.80
2023-04-01T11:18:55.658Z,12.70
2023-04-01T11:21:51.065Z,12.80
2023-04-01T11:24:41.916Z,12.60
2023-04-01T11:27:19.174Z,12.50
2023-04-01T11:30:00.329Z,12.40
2023-04-01T11:33:01.424Z,12.20
2023-04-01T11:36:09.062Z,12.20
2023-04-01T11:39:07.232Z,12.10
2023-04-01T11:41:52.983Z,12.00
2023-04-01T11:44:29.994Z,11.90
2023-04-01T11:47:31.069Z,11.80
2023-04-01T11:50:19.689Z,11.80
2023-04-01T11:52:56.699Z,11.80
2023-04-01T11:55:32.765Z,11.80
2023-04-01T11:58:25.840Z,11.80
2023-04-01T12:01:17.777Z,11.80
2023-04-01T12:03:47.853Z,11.80
2023-04-01T12:06:40.859Z,11.90
2023-04-01T12:09:22.828Z,12.00
2023-04-01T12:12:16.554Z,12.00
2023-04-01T12:14:52.150Z,11.90
2023-04-01T12:17:40.880Z,11.80
2023-04-01T12:20:14.653Z,11.80
2023-04-01T12:22:47.526Z,11.80
2023-04-01T12:25:47.504Z,11.80
2023-04-01T12:28:48.235Z,12.00
2023-04-01T12:31:29.873Z,12.10
2023-04-01T12:34:25.926Z,12.20
2023-04-01T12:36:58.364Z,12.40
2023-04-01T12:39:51.916Z,12.60
2023-04-01T12:42:33.866Z,12.50
2023-04-01T12:45:19.202Z,12.60
2023-04-01T12:48:13.359Z,12.60
2023-04-01T12:51:01.314Z,12.80
2023-04-01T12:54:08.939Z,12.90
2023-04-01T12:56:59.943Z,12.80
2023-04-01T12:59:55.645Z,12.90
2023-04-01T13:02:31.214Z,12.90
2023-04-01T13:05:44.813Z,12.90
2023-04-01T13:08:17.756Z,12.80
2023-04-01T13:10:55.577Z,12.70
2023-04-01T13:13:33.265Z,12.70
2023-04-01T13:16:06.819Z,12.50
2023-04-01T13:18:55.261Z,12.50
2023-04-01T13:21:37.700Z,12.50
2023-04-01T13:24:18.155Z,12.50
2023-04-01T13:26:57.193Z,12.50
2023-04-01T13:29:42.214Z,12.50
2023-04-01T13:32:40.683Z,12.40
2023-04-01T13:35:35.050Z,12.30
2023-04-01T13:38:28.671Z,12.20
2023-04-01T13:41:23.813Z,12.20
2023-04-01T13:44:24.155Z,12.10
2023-04-01T13:47:13.392Z,12.10
2023-04-01T13:50:18.955Z,12.10
2023-04-01T13:52:54.908Z,12.00
2023-04-01T13:55:41.888Z,11.70
2023-04-01T13:58:50.015Z,11.60
2023-04-01T14:01:40.807Z,11.50
2023-04-01T14:04:40.067Z,11.50
2023-04-01T14:07:12.866Z,11.40
2023-04-01T14:10:01.792Z,11.40
2023-04-01T14:12:50.948Z,11.40
2023-04-01T14:15:41.995Z,11.40
2023-04-01T14:18:27.764Z,11.40
2023-04-01T14:21:07.803Z,11.40
2023-04-01T14:23:37.667Z,11.50
2023-04-01T14:26:22.392Z,11.60
2023-04-01T14:29:32.316Z,11.70
2023-04-01T14:32:06.790Z,11.90
2023-04-01T14:35:01.303Z,11.90
2023-04-01T14:37:56.327Z,12.00
2023-04-01T14:41:08.025Z,12.00
2023-04-01T14:44:25.097Z,12.00
2023-04-01T14:47:10.600Z,12.00
2023-04-01T14:49:42.489Z,12.00
2023-04-01T14:52:24.378Z,11.90
2023-04-01T14:54:52.877Z,11.90
2023-04-01T14:57:28.423Z,11.80
2023-04-01T15:00:22.901Z,11.70
2023-04-01T15:02:49.820Z,11.60
2023-04-01T15:05:25.267Z,11.50
2023-04-01T15:08:22.097Z,11.40
2023-04-01T15:11:01.321Z,11.30
2023-04-01T15:13:31.363Z,11.10
2023-04-01T15:16:27.440Z,11.00
2023-04-01T15:19:14.281Z,10.80
2023-04-01T15:22:18.906Z,10.60
2023-04-01T15:25:21.178Z,10.60
2023-04-01T15:28:01.681Z,10.60
2023-04-01T15:30:32.136Z,10.50
2023-04-01T15:33:09.627Z,10.50
2023-04-01T15:35:42.564Z,10.50
2023-04-01T15:38:27.764Z,10.40
2023-04-01T15:41:12.909Z,10.50
2023-04-01T15:43:45.824Z,10.50
2023-04-01T15:46:31.387Z,10.40
2023-04-01T15:49:43.004Z,10.50
2023-04-01T15:52:15.566Z,10.50
2023-04-01T15:54:51.327Z,10.50
2023-04-01T15:57:58.937Z,10.50
2023-04-01T16:00:47.504Z,10.50
2023-04-01T16:03:41.352Z,10.40
2023-04-01T16:06:26.445Z,10.40
2023-04-01T16:09:21.864Z,10.30
2023-04-01T16:12:07.521Z,10.30
2023-04-01T16:14:57.728Z,10.30
2023-04-01T16:17:51.314Z,10.20
2023-04-01T16:20:46.108Z,10.20
2023-04-01T16:23:21.854Z,10.10
2023-04-01T16:26:02.880Z,10.00
2023-04-01T16:28:41.047Z,10.00
2023-04-01T16:31:17.833Z,9.90
2023-04-01T16:33:56.764Z,9.90
2023-04-01T16:36:31.171Z,9.90
2023-04-01T16:39:16.969Z,9.90
2023-04-01T16:41:58.086Z,9.80
2023-04-01T16:44:27.202Z,9.80
2023-04-01T16:47:09.594Z,9.80
2023-04-01T16:49:57.935Z,9.80
2023-04-01T16:53:03.743Z,9.80
2023-04-01T16:56:12.816Z,9.70
2023-04-01T16:58:50.704Z,9.70
2023-04-01T17:01:30.099Z,9.70
2023-04-01T17:04:11.842Z,9.70
2023-04-01T17:06:52.237Z,9.60
2023-04-01T17:09:19.063Z,9.60
2023-04-01T17:12:07.293Z,9.60
2023-04-01T17:15:03.847Z,9.60
2023-04-01T17:17:45.538Z,9.60
2023-04-01T17:20:48.814Z,9.60
2023-04-01T17:23:24.397Z,9.60
2023-04-01T17:26:10.987Z,9.60
2023-04-01T17:29:04.189Z,9.60
2023-04-01T17:31:47.580Z,9.60
2023-04-01T17:34:38.200Z,9.60
2023-04-01T17:37:25.010Z,9.50
2023-04-01T17:40:20.910Z,9.50
2023-04-01T17:42:56.035Z,9.50
2023-04-01T17:45:29.196Z,9.50
2023-04-01T17:48:19.428Z,9.40
2023-04-01T17:51:11.097Z,9.40
2023-04-01T17:54:01.812Z,9.40
2023-04-01T17:56:50.702Z,9.40
2023-04-01T17:59:26.502Z,9.40
2023-04-01T18:02:10.761Z,9.40
2023-04-01T18:04:55.760Z,9.40
2023-04-01T18:07:47.924Z,9.40
2023-04-01T18:10:45.638Z,9.40
2023-04-01T18:13:38.063Z,9.30
2023-04-01T18:16:26.018Z,9.30
2023-04-01T18:19:24.599Z,9.30
2023-04-01T18:22:19.803Z,9.30
2023-04-01T18:24:46.889Z,9.30
2023-04-01T18:27:24.931Z,9.30
2023-04-01T18:30:17.277Z,9.30
2023-04-01T18:33:03.464Z,9.20
2023-04-01T18:35:42.350Z,9.20
2023-04-01T18:38:34.381Z,9.20
2023-04-01T18:41:34.401Z,9.20
2023-04-01T18:44:34.633Z,9.30
2023-04-01T18:47:33.880Z,9.20
2023-04-01T18:50:19.443Z,9.30
2023-04-01T18:52:48.954Z,9.20
2023-04-01T18:55:25.329Z,9.30
2023-04-01T18:57:55.879Z,9.30
2023-04-01T19:00:51.704Z,9.30
2023-04-01T19:03:28.910Z,9.30
2023-04-01T19:06:00.961Z,9.20
2023-04-01T19:08:40.326Z,9.20
2023-04-01T19:11:25.233Z,9.20
2023-04-01T19:14:12.802Z,9.20
2023-04-01T19:16:54.755Z,9.20
2023-04-01T19:19:37.424Z,9.20
2023-04-01T19:22:28.962Z,9.20
2023-04-01T19:25:23.412Z,9.20
2023-04-01T19:28:01.145Z,9.10
2023-04-01T19:30:41.098Z,9.10
2023-04-01T19:33:36.281Z,9.10
2023-04-01T19:36:18.189Z,9.10
2023-04-01T19:39:06.606Z,9.10
2023-04-01T19:41:34.561Z,9.10
2023-04-01T19:44:18.900Z,9.10
2023-04-01T19:46:52.869Z,9.10
2023-04-01T19:49:20.021Z,9.10
2023-04-01T19:51:54.603Z,9.10
2023-04-01T19:54:37.909Z,9.00
2023-04-01T19:57:46.460Z,9.00
2023-04-01T20:00:33.734Z,9.00
2023-04-01T20:03:20.335Z,9.00
2023-04-01T20:06:05.048Z,9.00
2023-04-01T20:08:34.834Z,9.00
2023-04-01T20:11:34.151Z,9.00
2023-04-01T20:14:32.849Z,9.00
2023-04-01T20:17:08.895Z,9.00
2023-04-01T20:19:54.227Z,9.00
2023-04-01T20:22:26.259Z,8.90
2023-04-01T20:24:54.731Z,8.90
2023-04-01T20:27:31.385Z,8.90
2023-04-01T20:30:27.613Z,8.90
2023-04-01T20:33:21.966Z,8.90
2023-04-01T20:36:09.787Z,8.90
2023-04-01T20:39:01.725Z,8.90
2023-04-01T20:41:44.730Z,8.90
2023-04-01T20:44:32.428Z,8.90
2023-04-01T20:47:33.121Z,8.80
2023-04-01T20:50:18.458Z,8.80
2023-04-01T20:52:58.641Z,8.80
2023-04-01T20:55:25.657Z,8.80
2023-04-01T20:58:11.852Z,8.80
2023-04-01T21:01:17.652Z,8.80
2023-04-01T21:03:59.527Z,8.80
2023-04-01T21:06:36.969Z,8.80
2023-04-01T21:09:19.258Z,8.70
2023-04-01T21:12:07.539Z,8.80
2023-04-01T21:15:07.522Z,8.80
2023-04-01T21:18:00.267Z,8.70
2023-04-01T21:20:53.002Z,8.70
2023-04-01T21:23:59.241Z,8.60
2023-04-01T21:26:50.201Z,8.60
2023-04-01T21:29:23.185Z,8.60
2023-04-01T21:32:11.603Z,8.60
2023-04-01T21:34:58.508Z,8.60
2023-04-01T21:38:04.231Z,8.60
2023-04-01T21:40:46.561Z,8.60
2023-04-01T21:43:26.334Z,8.50
2023-04-01T21:46:20.497Z,8.50
2023-04-01T21:49:25.650Z,8.50
2023-04-01T21:52:23.548Z,8.50
2023-04-01T21:55:09.313Z,8.50
2023-04-01T21:58:09.714Z,8.50
2023-04-01T22:01:00.461Z,8.50
2023-04-01T22:04:07.926Z,8.40
2023-04-01T22:06:41.432Z,8.50
2023-04-01T22:09:26.287Z,8.50
2023-04-01T22:12:14.666Z,8.40
2023-04-01T22:14:59.262Z,8.40
2023-04-01T22:18:02.626Z,8.40
2023-04-01T22:20:38.178Z,8.30
2023-04-01T22:23:21.517Z,8.40
2023-04-01T22:26:05.803Z,8.40
2023-04-01T22:28:42.904Z,8.40
2023-04-01T22:31:14.792Z,8.30
2023-04-01T22:34:05.791Z,8.40
2023-04-01T22:36:46.130Z,8.40
2023-04-01T22:39:45.049Z,8.40
2023-04-01T22:42:30.089Z,8.40
2023-04-01T22:45:21.966Z,8.40
2023-04-01T22:48:16.825Z,8.30
2023-04-01T22:51:08.180Z,8.30
2023-04-01T22:53:52.966Z,8.30
2023-04-01T22:56:27.994Z,8.30
2023-04-01T22:59:11.200Z,8.30
2023-04-01T23:01:46.863Z,8.30
2023-04-01T23:04:18.971Z,8.30
2023-04-01T23:06:53.807Z,8.20
2023-04-01T23:09:32.566Z,8.20
2023-04-01T23:12:13.796Z,8.20
2023-04-01T23:14:55.353Z,8.20
2023-04-01T23:17:43.970Z,8.20
2023-04-01T23:20:22.703Z,8.20
2023-04-01T23:23:02.683Z,8.20
2023-04-01T23:25:56.431Z,8.20
2023-04-01T23:28:44.574Z,8.20
2023-04-01T23:31:33.751Z,8.20
2023-04-01T23:34:12.908Z,8.20
2023-04-01T23:36:56.432Z,8.20
2023-04-01T23:39:45.098Z,8.20
2023-04-01T23:42:31.242Z,8.20
2023-04-01T23:45:23.348Z,8.10
2023-04-01T23:47:51.655Z,8.10
2023-04-01T23:50:23.038Z,8.10
2023-04-01T23:52:59.158Z,8.00
2023-04-01T23:55:30.929Z,8.00
2023-04-01T23:58:06.666Z,8.00
